sensor_id;sensor_type;location;lat;lon;timestamp;pressure;altitude;pressure_sealevel;temperature;humidity
75891;BME280;64571;47.512;19.054;2024-01-15T00:01:49;99284.66;;;0.44;83.33
75891;BME280;64571;47.512;19.054;2024-01-15T00:04:52;99287.44;;;0.49;83.59
75891;BME280;64571;47.512;19.054;2024-01-15T00:07:54;99282.88;;;0.55;83.40
75891;BME280;64571;47.512;19.054;2024-01-15T00:10:57;99285.84;;;0.53;83.74
75891;BME280;64571;47.512;19.054;2024-01-15T00:14:00;99282.50;;;0.46;83.78
75891;BME280;64571;47.512;19.054;2024-01-15T00:17:02;99286.38;;;0.50;83.48
75891;BME280;64571;47.512;19.054;2024-01-15T00:20:06;99281.50;;;0.57;83.82
75891;BME280;64571;47.512;19.054;2024-01-15T00:23:09;99258.53;;;0.58;84.08
75891;BME280;64571;47.512;19.054;2024-01-15T00:26:11;99251.97;;;0.54;83.87
75891;BME280;64571;47.512;19.054;2024-01-15T00:29:14;99237.47;;;0.54;83.93
75891;BME280;64571;47.512;19.054;2024-01-15T00:32:16;99226.84;;;0.57;83.44
75891;BME280;64571;47.512;19.054;2024-01-15T00:35:19;99224.66;;;0.54;83.47
75891;BME280;64571;47.512;19.054;2024-01-15T00:38:22;99219.22;;;0.59;82.81
75891;BME280;64571;47.512;19.054;2024-01-15T00:41:25;99224.09;;;0.57;82.82
75891;BME280;64571;47.512;19.054;2024-01-15T00:44:29;99223.78;;;0.54;82.95
75891;BME280;64571;47.512;19.054;2024-01-15T00:47:32;99207.28;;;0.38;83.14
75891;BME280;64571;47.512;19.054;2024-01-15T00:50:35;99212.78;;;0.43;83.12
75891;BME280;64571;47.512;19.054;2024-01-15T00:53:38;99231.00;;;0.65;82.38
75891;BME280;64571;47.512;19.054;2024-01-15T00:56:40;99221.91;;;0.54;83.00
75891;BME280;64571;47.512;19.054;2024-01-15T00:59:43;99218.91;;;0.56;82.42
75891;BME280;64571;47.512;19.054;2024-01-15T01:02:46;99221.38;;;0.57;82.25
75891;BME280;64571;47.512;19.054;2024-01-15T01:05:49;99225.25;;;0.66;81.97
75891;BME280;64571;47.512;19.054;2024-01-15T01:08:55;99216.47;;;0.59;81.76
75891;BME280;64571;47.512;19.054;2024-01-15T01:11:57;99197.03;;;0.56;81.84
75891;BME280;64571;47.512;19.054;2024-01-15T01:15:00;99209.47;;;0.73;81.77
75891;BME280;64571;47.512;19.054;2024-01-15T01:18:03;99189.75;;;0.71;82.08
75891;BME280;64571;47.512;19.054;2024-01-15T01:21:06;99190.75;;;0.55;83.33
75891;BME280;64571;47.512;19.054;2024-01-15T01:24:09;99196.44;;;0.48;83.90
75891;BME280;64571;47.512;19.054;2024-01-15T01:27:11;99187.03;;;0.34;84.49
75891;BME280;64571;47.512;19.054;2024-01-15T01:30:14;99181.09;;;0.42;84.45
75891;BME280;64571;47.512;19.054;2024-01-15T01:33:17;99182.47;;;0.45;84.40
75891;BME280;64571;47.512;19.054;2024-01-15T01:36:20;99168.53;;;0.41;84.55
75891;BME280;64571;47.512;19.054;2024-01-15T01:39:23;99175.59;;;0.37;84.94
75891;BME280;64571;47.512;19.054;2024-01-15T01:42:26;99164.44;;;0.49;84.53
75891;BME280;64571;47.512;19.054;2024-01-15T01:45:28;99151.56;;;0.44;84.49
75891;BME280;64571;47.512;19.054;2024-01-15T01:48:31;99148.00;;;0.39;84.99
75891;BME280;64571;47.512;19.054;2024-01-15T01:51:35;99144.72;;;0.37;85.39
75891;BME280;64571;47.512;19.054;2024-01-15T01:54:41;99138.94;;;0.33;86.00
75891;BME280;64571;47.512;19.054;2024-01-15T01:57:43;99138.63;;;0.30;86.11
75891;BME280;64571;47.512;19.054;2024-01-15T02:00:47;99138.56;;;0.19;86.63
75891;BME280;64571;47.512;19.054;2024-01-15T02:03:50;99119.31;;;0.04;87.49
75891;BME280;64571;47.512;19.054;2024-01-15T02:06:53;99125.03;;;0.03;87.74
75891;BME280;64571;47.512;19.054;2024-01-15T02:09:56;99124.50;;;0.01;88.26
75891;BME280;64571;47.512;19.054;2024-01-15T02:12:58;99110.78;;;-0.05;88.88
75891;BME280;64571;47.512;19.054;2024-01-15T02:16:01;99093.81;;;-0.12;89.06
75891;BME280;64571;47.512;19.054;2024-01-15T02:19:03;99100.63;;;-0.09;89.50
75891;BME280;64571;47.512;19.054;2024-01-15T02:22:06;99093.72;;;-0.22;89.89
75891;BME280;64571;47.512;19.054;2024-01-15T02:25:09;99110.94;;;-0.21;90.62
75891;BME280;64571;47.512;19.054;2024-01-15T02:28:16;99098.28;;;-0.28;90.78
75891;BME280;64571;47.512;19.054;2024-01-15T02:31:19;99118.84;;;-0.20;90.80
75891;BME280;64571;47.512;19.054;2024-01-15T02:34:22;99107.75;;;-0.40;92.57
75891;BME280;64571;47.512;19.054;2024-01-15T02:37:24;99112.94;;;-0.39;92.71
75891;BME280;64571;47.512;19.054;2024-01-15T02:40:27;99097.66;;;-0.40;92.90
75891;BME280;64571;47.512;19.054;2024-01-15T02:43:30;99086.06;;;-0.52;93.74
75891;BME280;64571;47.512;19.054;2024-01-15T02:46:32;99077.13;;;-0.47;93.84
75891;BME280;64571;47.512;19.054;2024-01-15T02:49:35;99073.59;;;-0.43;93.25
75891;BME280;64571;47.512;19.054;2024-01-15T02:52:38;99070.84;;;-0.48;93.32
75891;BME280;64571;47.512;19.054;2024-01-15T02:55:40;99095.91;;;-0.51;94.21
75891;BME280;64571;47.512;19.054;2024-01-15T02:58:43;99078.25;;;-0.43;93.91
75891;BME280;64571;47.512;19.054;2024-01-15T03:01:46;99081.78;;;-0.43;93.93
75891;BME280;64571;47.512;19.054;2024-01-15T03:04:48;99083.75;;;-0.38;93.50
75891;BME280;64571;47.512;19.054;2024-01-15T03:07:51;99067.66;;;-0.40;92.88
75891;BME280;64571;47.512;19.054;2024-01-15T03:10:54;99068.78;;;-0.36;92.97
75891;BME280;64571;47.512;19.054;2024-01-15T03:13:56;99052.62;;;-0.37;92.76
75891;BME280;64571;47.512;19.054;2024-01-15T03:16:59;99054.94;;;-0.24;92.59
75891;BME280;64571;47.512;19.054;2024-01-15T03:20:03;99021.06;;;-0.28;92.25
75891;BME280;64571;47.512;19.054;2024-01-15T03:23:06;99042.41;;;-0.20;92.22
75891;BME280;64571;47.512;19.054;2024-01-15T03:26:09;99037.47;;;-0.23;92.37
75891;BME280;64571;47.512;19.054;2024-01-15T03:29:12;99025.75;;;-0.18;92.24
75891;BME280;64571;47.512;19.054;2024-01-15T03:32:14;99027.97;;;-0.15;91.98
75891;BME280;64571;47.512;19.054;2024-01-15T03:35:18;99035.69;;;-0.07;91.79
75891;BME280;64571;47.512;19.054;2024-01-15T03:38:23;99041.16;;;-0.07;91.79
75891;BME280;64571;47.512;19.054;2024-01-15T03:41:25;99068.97;;;-0.10;91.82
75891;BME280;64571;47.512;19.054;2024-01-15T03:44:28;99056.75;;;-0.03;92.21
75891;BME280;64571;47.512;19.054;2024-01-15T03:47:31;99051.38;;;-0.24;92.39
75891;BME280;64571;47.512;19.054;2024-01-15T03:50:33;99069.97;;;-0.21;91.85
75891;BME280;64571;47.512;19.054;2024-01-15T03:53:38;99084.44;;;-0.21;91.11
75891;BME280;64571;47.512;19.054;2024-01-15T03:56:40;99057.28;;;-0.38;91.27
75891;BME280;64571;47.512;19.054;2024-01-15T03:59:43;99052.44;;;-0.31;90.91
75891;BME280;64571;47.512;19.054;2024-01-15T04:02:45;99061.66;;;-0.37;91.97
75891;BME280;64571;47.512;19.054;2024-01-15T04:05:48;99061.91;;;-0.38;92.25
75891;BME280;64571;47.512;19.054;2024-01-15T04:08:51;99050.59;;;-0.52;91.89
75891;BME280;64571;47.512;19.054;2024-01-15T04:11:54;99051.94;;;-0.55;91.98
75891;BME280;64571;47.512;19.054;2024-01-15T04:14:56;99040.63;;;-0.68;91.82
75891;BME280;64571;47.512;19.054;2024-01-15T04:18:00;99028.38;;;-0.66;91.51
75891;BME280;64571;47.512;19.054;2024-01-15T04:21:06;99014.44;;;-0.69;91.53
75891;BME280;64571;47.512;19.054;2024-01-15T04:24:09;99001.81;;;-0.81;92.03
75891;BME280;64571;47.512;19.054;2024-01-15T04:27:12;99026.22;;;-0.64;92.60
75891;BME280;64571;47.512;19.054;2024-01-15T04:30:14;99019.38;;;-0.66;93.04
75891;BME280;64571;47.512;19.054;2024-01-15T04:33:17;99024.31;;;-0.63;93.52
75891;BME280;64571;47.512;19.054;2024-01-15T04:36:20;98998.34;;;-0.71;93.16
75891;BME280;64571;47.512;19.054;2024-01-15T04:39:23;98991.69;;;-0.53;93.01
75891;BME280;64571;47.512;19.054;2024-01-15T04:42:26;98997.47;;;-0.44;93.17
75891;BME280;64571;47.512;19.054;2024-01-15T04:45:29;99023.97;;;-0.40;92.54
75891;BME280;64571;47.512;19.054;2024-01-15T04:48:33;99016.31;;;-0.43;92.37
75891;BME280;64571;47.512;19.054;2024-01-15T04:51:35;99012.97;;;-0.50;93.06
75891;BME280;64571;47.512;19.054;2024-01-15T04:54:38;99000.69;;;-0.53;92.52
75891;BME280;64571;47.512;19.054;2024-01-15T04:57:41;99005.34;;;-0.48;92.44
75891;BME280;64571;47.512;19.054;2024-01-15T05:00:43;98999.56;;;-0.57;92.69
75891;BME280;64571;47.512;19.054;2024-01-15T05:03:46;99023.38;;;-0.47;92.60
75891;BME280;64571;47.512;19.054;2024-01-15T05:06:49;98999.03;;;-0.54;93.07
75891;BME280;64571;47.512;19.054;2024-01-15T05:09:52;99009.69;;;-0.52;92.92
75891;BME280;64571;47.512;19.054;2024-01-15T05:12:55;99021.16;;;-0.50;93.22
75891;BME280;64571;47.512;19.054;2024-01-15T05:15:57;99025.81;;;-0.45;93.49
75891;BME280;64571;47.512;19.054;2024-01-15T05:19:00;99027.66;;;-0.56;93.73
75891;BME280;64571;47.512;19.054;2024-01-15T05:22:03;99036.16;;;-0.53;93.85
75891;BME280;64571;47.512;19.054;2024-01-15T05:25:06;99021.38;;;-0.57;93.61
75891;BME280;64571;47.512;19.054;2024-01-15T05:28:09;99017.09;;;-0.47;93.13
75891;BME280;64571;47.512;19.054;2024-01-15T05:31:11;99012.41;;;-0.52;93.01
75891;BME280;64571;47.512;19.054;2024-01-15T05:34:15;99008.09;;;-0.48;92.95
75891;BME280;64571;47.512;19.054;2024-01-15T05:37:18;99008.72;;;-0.36;92.76
75891;BME280;64571;47.512;19.054;2024-01-15T05:40:21;99022.97;;;-0.29;92.64
75891;BME280;64571;47.512;19.054;2024-01-15T05:43:24;99013.09;;;-0.35;92.41
75891;BME280;64571;47.512;19.054;2024-01-15T05:46:26;99032.31;;;-0.19;92.33
75891;BME280;64571;47.512;19.054;2024-01-15T05:49:29;99028.00;;;-0.10;92.16
75891;BME280;64571;47.512;19.054;2024-01-15T05:52:32;99034.88;;;-0.08;92.96
75891;BME280;64571;47.512;19.054;2024-01-15T05:55:36;99033.47;;;-0.10;92.92
75891;BME280;64571;47.512;19.054;2024-01-15T05:58:39;99023.81;;;-0.23;92.49
75891;BME280;64571;47.512;19.054;2024-01-15T06:01:42;99020.28;;;-0.23;92.52
75891;BME280;64571;47.512;19.054;2024-01-15T06:04:44;99012.81;;;-0.33;92.53
75891;BME280;64571;47.512;19.054;2024-01-15T06:07:47;99005.72;;;-0.34;91.55
75891;BME280;64571;47.512;19.054;2024-01-15T06:10:50;98992.91;;;-0.34;92.12
75891;BME280;64571;47.512;19.054;2024-01-15T06:13:52;99002.25;;;-0.24;92.07
75891;BME280;64571;47.512;19.054;2024-01-15T06:16:55;99000.31;;;-0.29;92.23
75891;BME280;64571;47.512;19.054;2024-01-15T06:19:58;99008.28;;;-0.22;92.07
75891;BME280;64571;47.512;19.054;2024-01-15T06:23:01;99014.84;;;-0.18;91.83
75891;BME280;64571;47.512;19.054;2024-01-15T06:26:04;99012.13;;;-0.18;91.66
75891;BME280;64571;47.512;19.054;2024-01-15T06:29:07;99016.50;;;-0.17;92.15
75891;BME280;64571;47.512;19.054;2024-01-15T06:32:10;99012.41;;;-0.15;92.61
75891;BME280;64571;47.512;19.054;2024-01-15T06:35:13;99007.97;;;-0.26;92.22
75891;BME280;64571;47.512;19.054;2024-01-15T06:38:16;99015.34;;;-0.27;92.15
75891;BME280;64571;47.512;19.054;2024-01-15T06:41:19;98994.00;;;-0.35;92.07
75891;BME280;64571;47.512;19.054;2024-01-15T06:44:21;99012.88;;;-0.28;90.81
75891;BME280;64571;47.512;19.054;2024-01-15T06:47:24;99027.78;;;-0.41;90.35
75891;BME280;64571;47.512;19.054;2024-01-15T06:50:27;99029.78;;;-0.31;89.96
75891;BME280;64571;47.512;19.054;2024-01-15T06:53:30;99030.12;;;-0.22;89.60
75891;BME280;64571;47.512;19.054;2024-01-15T06:56:32;99013.66;;;-0.33;89.41
75891;BME280;64571;47.512;19.054;2024-01-15T06:59:35;99015.13;;;-0.20;89.40
75891;BME280;64571;47.512;19.054;2024-01-15T07:02:38;99023.63;;;-0.11;89.23
75891;BME280;64571;47.512;19.054;2024-01-15T07:05:41;99023.34;;;-0.15;88.91
75891;BME280;64571;47.512;19.054;2024-01-15T07:08:43;99012.66;;;-0.21;88.91
75891;BME280;64571;47.512;19.054;2024-01-15T07:11:46;99023.16;;;-0.03;88.55
75891;BME280;64571;47.512;19.054;2024-01-15T07:14:49;99024.50;;;-0.06;88.56
75891;BME280;64571;47.512;19.054;2024-01-15T07:17:52;99032.16;;;-0.03;88.39
75891;BME280;64571;47.512;19.054;2024-01-15T07:20:54;99021.53;;;-0.04;88.49
75891;BME280;64571;47.512;19.054;2024-01-15T07:23:57;99041.69;;;-0.05;88.63
75891;BME280;64571;47.512;19.054;2024-01-15T07:27:00;99045.78;;;-0.08;88.67
75891;BME280;64571;47.512;19.054;2024-01-15T07:30:03;99050.34;;;-0.18;88.70
75891;BME280;64571;47.512;19.054;2024-01-15T07:33:07;99055.06;;;-0.09;88.56
75891;BME280;64571;47.512;19.054;2024-01-15T07:36:10;99055.59;;;-0.12;88.70
75891;BME280;64571;47.512;19.054;2024-01-15T07:39:13;99044.41;;;-0.10;88.36
75891;BME280;64571;47.512;19.054;2024-01-15T07:42:16;99056.47;;;-0.01;88.09
75891;BME280;64571;47.512;19.054;2024-01-15T07:45:19;99060.88;;;0.00;87.85
75891;BME280;64571;47.512;19.054;2024-01-15T07:48:22;99063.37;;;0.12;87.62
75891;BME280;64571;47.512;19.054;2024-01-15T07:51:27;99069.22;;;0.25;87.24
75891;BME280;64571;47.512;19.054;2024-01-15T07:54:31;99061.53;;;0.22;86.88
75891;BME280;64571;47.512;19.054;2024-01-15T07:57:34;99054.81;;;0.40;86.34
75891;BME280;64571;47.512;19.054;2024-01-15T08:00:38;99058.69;;;0.49;85.55
75891;BME280;64571;47.512;19.054;2024-01-15T08:03:41;99063.94;;;0.61;85.61
75891;BME280;64571;47.512;19.054;2024-01-15T08:06:44;99057.47;;;0.78;85.09
75891;BME280;64571;47.512;19.054;2024-01-15T08:09:47;99040.31;;;1.08;83.90
75891;BME280;64571;47.512;19.054;2024-01-15T08:12:51;99055.47;;;1.41;82.05
75891;BME280;64571;47.512;19.054;2024-01-15T08:15:54;99052.72;;;1.66;77.50
75891;BME280;64571;47.512;19.054;2024-01-15T08:18:56;99040.16;;;1.96;73.21
75891;BME280;64571;47.512;19.054;2024-01-15T08:21:59;99047.78;;;2.19;72.07
75891;BME280;64571;47.512;19.054;2024-01-15T08:25:02;99064.75;;;2.37;69.04
75891;BME280;64571;47.512;19.054;2024-01-15T08:28:06;99042.22;;;2.55;68.06
75891;BME280;64571;47.512;19.054;2024-01-15T08:31:09;99070.44;;;2.71;66.29
75891;BME280;64571;47.512;19.054;2024-01-15T08:34:12;99073.41;;;2.79;65.06
75891;BME280;64571;47.512;19.054;2024-01-15T08:37:14;99062.38;;;2.95;64.50
75891;BME280;64571;47.512;19.054;2024-01-15T08:40:17;99079.16;;;2.88;62.91
75891;BME280;64571;47.512;19.054;2024-01-15T08:43:20;99072.25;;;2.91;62.47
75891;BME280;64571;47.512;19.054;2024-01-15T08:46:23;99062.31;;;3.05;63.16
75891;BME280;64571;47.512;19.054;2024-01-15T08:49:26;99069.44;;;3.11;63.31
75891;BME280;64571;47.512;19.054;2024-01-15T08:52:29;99063.37;;;3.14;63.75
75891;BME280;64571;47.512;19.054;2024-01-15T08:55:32;99070.47;;;3.25;63.73
75891;BME280;64571;47.512;19.054;2024-01-15T08:58:35;99076.25;;;3.19;63.12
75891;BME280;64571;47.512;19.054;2024-01-15T09:01:38;99079.28;;;3.17;62.88
75891;BME280;64571;47.512;19.054;2024-01-15T09:04:42;99085.87;;;3.16;63.01
75891;BME280;64571;47.512;19.054;2024-01-15T09:07:44;99064.44;;;3.18;63.10
75891;BME280;64571;47.512;19.054;2024-01-15T09:10:48;99082.81;;;3.23;63.51
75891;BME280;64571;47.512;19.054;2024-01-15T09:13:51;99084.25;;;3.15;62.75
75891;BME280;64571;47.512;19.054;2024-01-15T09:16:54;99084.22;;;3.20;62.81
75891;BME280;64571;47.512;19.054;2024-01-15T09:19:57;99076.75;;;3.31;63.17
75891;BME280;64571;47.512;19.054;2024-01-15T09:23:00;99066.06;;;3.29;62.24
75891;BME280;64571;47.512;19.054;2024-01-15T09:26:02;99074.25;;;3.35;61.79
75891;BME280;64571;47.512;19.054;2024-01-15T09:29:05;99075.03;;;3.40;61.53
75891;BME280;64571;47.512;19.054;2024-01-15T09:32:08;99063.72;;;3.52;61.72
75891;BME280;64571;47.512;19.054;2024-01-15T09:35:11;99044.53;;;3.42;61.05
75891;BME280;64571;47.512;19.054;2024-01-15T09:38:14;99062.00;;;3.61;61.49
75891;BME280;64571;47.512;19.054;2024-01-15T09:41:17;99066.09;;;3.64;61.45
75891;BME280;64571;47.512;19.054;2024-01-15T09:44:20;99055.53;;;3.81;61.06
75891;BME280;64571;47.512;19.054;2024-01-15T09:47:23;99053.06;;;3.79;60.55
75891;BME280;64571;47.512;19.054;2024-01-15T09:50:27;99044.84;;;3.79;60.40
75891;BME280;64571;47.512;19.054;2024-01-15T09:53:30;99038.47;;;3.84;60.04
75891;BME280;64571;47.512;19.054;2024-01-15T09:56:34;99036.50;;;3.90;59.39
75891;BME280;64571;47.512;19.054;2024-01-15T09:59:38;99032.00;;;3.99;58.96
75891;BME280;64571;47.512;19.054;2024-01-15T10:02:42;99028.59;;;4.12;59.27
75891;BME280;64571;47.512;19.054;2024-01-15T10:05:46;99025.91;;;4.07;58.30
75891;BME280;64571;47.512;19.054;2024-01-15T10:08:50;99024.31;;;4.01;57.88
75891;BME280;64571;47.512;19.054;2024-01-15T10:11:53;99001.78;;;3.99;57.94
75891;BME280;64571;47.512;19.054;2024-01-15T10:14:56;99008.28;;;4.08;57.78
75891;BME280;64571;47.512;19.054;2024-01-15T10:18:00;99021.06;;;4.23;57.79
75891;BME280;64571;47.512;19.054;2024-01-15T10:21:03;99012.00;;;4.22;57.49
75891;BME280;64571;47.512;19.054;2024-01-15T10:24:06;98997.63;;;4.30;56.94
75891;BME280;64571;47.512;19.054;2024-01-15T10:27:10;98991.47;;;4.39;56.31
75891;BME280;64571;47.512;19.054;2024-01-15T10:30:14;98981.66;;;4.32;56.18
75891;BME280;64571;47.512;19.054;2024-01-15T10:33:21;98987.28;;;4.46;56.60
75891;BME280;64571;47.512;19.054;2024-01-15T10:36:29;98970.97;;;4.50;55.99
75891;BME280;64571;47.512;19.054;2024-01-15T10:39:31;98970.63;;;4.56;55.05
75891;BME280;64571;47.512;19.054;2024-01-15T10:42:34;98970.97;;;4.50;55.11
75891;BME280;64571;47.512;19.054;2024-01-15T10:45:37;98975.59;;;4.54;55.54
75891;BME280;64571;47.512;19.054;2024-01-15T10:48:42;98978.59;;;4.58;55.12
75891;BME280;64571;47.512;19.054;2024-01-15T10:51:44;98978.00;;;4.61;55.16
75891;BME280;64571;47.512;19.054;2024-01-15T10:54:48;98993.41;;;4.62;55.21
75891;BME280;64571;47.512;19.054;2024-01-15T10:57:51;98989.88;;;4.80;55.53
75891;BME280;64571;47.512;19.054;2024-01-15T11:00:56;98995.47;;;4.94;55.06
75891;BME280;64571;47.512;19.054;2024-01-15T11:03:58;98977.78;;;5.00;54.87
75891;BME280;64571;47.512;19.054;2024-01-15T11:07:02;98990.94;;;5.03;55.17
75891;BME280;64571;47.512;19.054;2024-01-15T11:10:06;98973.09;;;5.01;55.14
75891;BME280;64571;47.512;19.054;2024-01-15T11:13:21;98984.69;;;4.98;54.89
75891;BME280;64571;47.512;19.054;2024-01-15T11:16:57;98977.25;;;5.17;55.34
75891;BME280;64571;47.512;19.054;2024-01-15T11:20:06;98967.81;;;5.23;55.01
75891;BME280;64571;47.512;19.054;2024-01-15T11:23:08;98968.41;;;5.20;55.08
75891;BME280;64571;47.512;19.054;2024-01-15T11:26:33;98963.47;;;5.17;54.71
75891;BME280;64571;47.512;19.054;2024-01-15T11:29:37;98962.06;;;5.20;55.21
75891;BME280;64571;47.512;19.054;2024-01-15T11:32:40;98958.78;;;5.18;55.33
75891;BME280;64571;47.512;19.054;2024-01-15T11:35:50;98959.97;;;5.30;55.19
75891;BME280;64571;47.512;19.054;2024-01-15T11:38:55;98951.56;;;5.41;54.94
75891;BME280;64571;47.512;19.054;2024-01-15T11:41:59;98945.34;;;5.49;54.84
75891;BME280;64571;47.512;19.054;2024-01-15T11:45:03;98944.25;;;5.50;54.83
75891;BME280;64571;47.512;19.054;2024-01-15T11:48:14;98958.53;;;5.52;54.72
75891;BME280;64571;47.512;19.054;2024-01-15T11:51:21;98941.91;;;5.57;54.63
75891;BME280;64571;47.512;19.054;2024-01-15T11:54:25;98947.66;;;5.61;54.57
75891;BME280;64571;47.512;19.054;2024-01-15T11:57:54;98933.16;;;5.55;54.72
75891;BME280;64571;47.512;19.054;2024-01-15T12:00:57;98920.09;;;5.61;54.68
75891;BME280;64571;47.512;19.054;2024-01-15T12:04:00;98920.41;;;5.59;54.66
75891;BME280;64571;47.512;19.054;2024-01-15T12:07:03;98924.56;;;5.56;54.63
75891;BME280;64571;47.512;19.054;2024-01-15T12:10:13;98930.22;;;5.65;54.52
75891;BME280;64571;47.512;19.054;2024-01-15T12:13:20;98921.00;;;5.56;54.00
75891;BME280;64571;47.512;19.054;2024-01-15T12:16:23;98926.72;;;5.59;54.08
75891;BME280;64571;47.512;19.054;2024-01-15T12:19:26;98923.06;;;5.64;53.96
75891;BME280;64571;47.512;19.054;2024-01-15T12:22:29;98916.53;;;5.60;53.67
75891;BME280;64571;47.512;19.054;2024-01-15T12:25:46;98906.44;;;5.69;53.63
75891;BME280;64571;47.512;19.054;2024-01-15T12:28:50;98911.31;;;5.58;53.64
75891;BME280;64571;47.512;19.054;2024-01-15T12:31:56;98909.06;;;5.61;53.55
75891;BME280;64571;47.512;19.054;2024-01-15T12:35:00;98877.22;;;5.54;53.73
75891;BME280;64571;47.512;19.054;2024-01-15T12:38:05;98873.34;;;5.55;53.63
75891;BME280;64571;47.512;19.054;2024-01-15T12:41:09;98885.91;;;5.62;54.21
75891;BME280;64571;47.512;19.054;2024-01-15T12:44:11;98883.47;;;5.60;53.33
75891;BME280;64571;47.512;19.054;2024-01-15T12:47:14;98888.53;;;5.53;54.01
75891;BME280;64571;47.512;19.054;2024-01-15T12:50:24;98868.34;;;5.57;53.83
75891;BME280;64571;47.512;19.054;2024-01-15T12:53:29;98870.69;;;5.50;53.57
75891;BME280;64571;47.512;19.054;2024-01-15T12:56:31;98874.28;;;5.65;53.49
75891;BME280;64571;47.512;19.054;2024-01-15T12:59:34;98875.69;;;5.62;53.43
75891;BME280;64571;47.512;19.054;2024-01-15T13:02:40;98876.56;;;5.76;53.18
75891;BME280;64571;47.512;19.054;2024-01-15T13:05:44;98861.75;;;5.72;53.07
75891;BME280;64571;47.512;19.054;2024-01-15T13:08:48;98872.94;;;5.62;53.14
75891;BME280;64571;47.512;19.054;2024-01-15T13:11:51;98876.50;;;5.63;53.70
75891;BME280;64571;47.512;19.054;2024-01-15T13:14:55;98872.84;;;5.67;53.48
75891;BME280;64571;47.512;19.054;2024-01-15T13:17:59;98878.16;;;5.64;53.58
75891;BME280;64571;47.512;19.054;2024-01-15T13:21:01;98887.63;;;5.57;53.41
75891;BME280;64571;47.512;19.054;2024-01-15T13:24:05;98887.94;;;5.56;53.46
75891;BME280;64571;47.512;19.054;2024-01-15T13:27:08;98881.06;;;5.53;53.59
75891;BME280;64571;47.512;19.054;2024-01-15T13:30:11;98874.88;;;5.62;53.81
75891;BME280;64571;47.512;19.054;2024-01-15T13:33:15;98874.97;;;5.56;53.72
75891;BME280;64571;47.512;19.054;2024-01-15T13:36:18;98868.62;;;5.42;54.00
75891;BME280;64571;47.512;19.054;2024-01-15T13:39:21;98875.44;;;5.45;53.93
75891;BME280;64571;47.512;19.054;2024-01-15T13:42:24;98888.22;;;5.41;54.07
75891;BME280;64571;47.512;19.054;2024-01-15T13:45:30;98898.09;;;5.42;54.14
75891;BME280;64571;47.512;19.054;2024-01-15T13:48:33;98889.94;;;5.37;54.38
75891;BME280;64571;47.512;19.054;2024-01-15T13:51:36;98881.91;;;5.21;54.31
75891;BME280;64571;47.512;19.054;2024-01-15T13:54:39;98884.38;;;5.23;54.28
75891;BME280;64571;47.512;19.054;2024-01-15T13:57:51;98887.31;;;5.26;54.80
75891;BME280;64571;47.512;19.054;2024-01-15T14:00:55;98883.94;;;5.16;54.87
75891;BME280;64571;47.512;19.054;2024-01-15T14:03:59;98889.66;;;5.19;54.72
75891;BME280;64571;47.512;19.054;2024-01-15T14:07:02;98890.47;;;5.20;54.94
75891;BME280;64571;47.512;19.054;2024-01-15T14:10:06;98888.03;;;5.18;54.96
75891;BME280;64571;47.512;19.054;2024-01-15T14:13:10;98877.00;;;5.18;55.47
75891;BME280;64571;47.512;19.054;2024-01-15T14:16:13;98875.44;;;5.12;55.55
75891;BME280;64571;47.512;19.054;2024-01-15T14:19:15;98880.00;;;5.03;55.16
75891;BME280;64571;47.512;19.054;2024-01-15T14:22:19;98884.75;;;4.97;55.06
75891;BME280;64571;47.512;19.054;2024-01-15T14:25:22;98899.94;;;4.95;55.37
75891;BME280;64571;47.512;19.054;2024-01-15T14:28:24;98895.84;;;4.92;55.60
75891;BME280;64571;47.512;19.054;2024-01-15T14:31:27;98899.03;;;4.80;55.75
75891;BME280;64571;47.512;19.054;2024-01-15T14:34:31;98901.78;;;4.80;55.79
75891;BME280;64571;47.512;19.054;2024-01-15T14:37:34;98895.47;;;4.80;56.45
75891;BME280;64571;47.512;19.054;2024-01-15T14:40:36;98891.41;;;4.77;56.79
75891;BME280;64571;47.512;19.054;2024-01-15T14:43:39;98892.06;;;4.69;56.73
75891;BME280;64571;47.512;19.054;2024-01-15T14:46:42;98903.56;;;4.71;57.03
75891;BME280;64571;47.512;19.054;2024-01-15T14:49:45;98909.38;;;4.70;56.96
75891;BME280;64571;47.512;19.054;2024-01-15T14:52:48;98911.97;;;4.61;57.07
75891;BME280;64571;47.512;19.054;2024-01-15T14:55:50;98911.16;;;4.61;57.35
75891;BME280;64571;47.512;19.054;2024-01-15T14:58:53;98907.88;;;4.58;57.75
75891;BME280;64571;47.512;19.054;2024-01-15T15:01:56;98897.47;;;4.55;57.79
75891;BME280;64571;47.512;19.054;2024-01-15T15:05:00;98909.22;;;4.61;57.58
75891;BME280;64571;47.512;19.054;2024-01-15T15:08:03;98910.34;;;4.60;58.15
75891;BME280;64571;47.512;19.054;2024-01-15T15:11:11;98906.62;;;4.51;57.39
75891;BME280;64571;47.512;19.054;2024-01-15T15:14:13;98899.28;;;4.41;57.77
75891;BME280;64571;47.512;19.054;2024-01-15T15:17:16;98904.69;;;4.27;57.71
75891;BME280;64571;47.512;19.054;2024-01-15T15:20:19;98903.31;;;4.30;58.07
75891;BME280;64571;47.512;19.054;2024-01-15T15:23:22;98900.97;;;4.18;57.67
75891;BME280;64571;47.512;19.054;2024-01-15T15:26:25;98902.06;;;4.17;57.86
75891;BME280;64571;47.512;19.054;2024-01-15T15:29:28;98894.06;;;4.21;58.30
75891;BME280;64571;47.512;19.054;2024-01-15T15:32:31;98893.19;;;4.25;58.24
75891;BME280;64571;47.512;19.054;2024-01-15T15:35:33;98898.00;;;4.15;57.87
75891;BME280;64571;47.512;19.054;2024-01-15T15:38:36;98901.84;;;4.14;58.51
75891;BME280;64571;47.512;19.054;2024-01-15T15:41:42;98891.66;;;4.14;58.39
75891;BME280;64571;47.512;19.054;2024-01-15T15:44:44;98899.06;;;4.19;58.52
75891;BME280;64571;47.512;19.054;2024-01-15T15:47:53;98893.59;;;4.14;57.90
75891;BME280;64571;47.512;19.054;2024-01-15T15:50:56;98885.88;;;4.16;57.68
75891;BME280;64571;47.512;19.054;2024-01-15T15:54:02;98879.72;;;4.00;57.70
75891;BME280;64571;47.512;19.054;2024-01-15T15:57:06;98893.31;;;4.15;58.04
75891;BME280;64571;47.512;19.054;2024-01-15T16:00:10;98900.16;;;4.18;58.08
75891;BME280;64571;47.512;19.054;2024-01-15T16:03:14;98906.53;;;4.13;57.94
75891;BME280;64571;47.512;19.054;2024-01-15T16:06:16;98919.50;;;4.07;57.81
75891;BME280;64571;47.512;19.054;2024-01-15T16:09:19;98934.00;;;4.13;57.96